KMGY

Dayton-Wright Brothers Airport

Dayton, Ohio, USA
METAR KMGY 170342Z AUTO 19007KT 6SM -RA BR BKN006 BKN020 OVC027 24/22 A3001 RMK AO2 LTG DSNT SW P0002 T02390217
Observed Flight Rules
Aug-17 @ 03:42 UTC (18 minutes ago) Instrument Flight Rules
Wind Visibility Clouds Conditions
190° at 7 knots 6 miles
  • Broken at 600' AGL
  • Broken at 2,000' AGL
  • Overcast at 2,700' AGL
  • Light Rain
  • Mist
Temperatures Readings Precipitation
Current 24°C / 75°F
Dewpoint 22°C / 72°F
Humidity 89%
Altimeter 30.01" Hg
Pressure 1016 hPa
Elevation 289
Current Rain 0.02
METAR KMGY 170342Z AUTO 19007KT 6SM -RA BR BKN006 BKN020 OVC027 24/22 A3001 RMK AO2 LTG DSNT SW P0002 T02390217
Observed Flight Rules
Aug-17 @ 03:42 UTC
(18 minutes ago)
IFR
Wind Visibility
190° at 7 knots 6 miles
Clouds
  • Broken at 600' AGL
  • Broken at 2,000' AGL
  • Overcast at 2,700' AGL
Conditions
  • Light Rain
  • Mist
Temperature Dewpoint
24°C / 75°F 22°C / 72°F
Humidity Altimeter Pressure
89% 30.01" Hg 1016 hPa
Current Rain
0.02